FIN2PC EFOU-EFRO

Flight info

Callsign FIN2PC
Flight time 0h 31m
Altitude 14000
Route UPEDU DCT RENVI
Aircraft A320/M-SDE3FGHIRWY/LB1

Departure

Time 2026-04-23 17:46
Airport Oulu Airport (EFOU)

Arrival

Time 2026-04-23 18:17
Airport Rovaniemi Airport (EFRO)
Time Latitude Longitude Altitude Speed Heading
2026-04-23 17:28 64.92782 25.37461 50 ft 0 kts 28°
2026-04-23 17:40 64.92781 25.37459 49 ft 2 kts 28°
2026-04-23 17:40 64.92758 25.37427 47 ft 4 kts 37°
2026-04-23 17:40 64.92738 25.37385 46 ft 4 kts 52°
2026-04-23 17:40 64.92727 25.37334 47 ft 4 kts 94°
2026-04-23 17:41 64.92731 25.37303 47 ft 1 kts 121°
2026-04-23 17:41 64.92731 25.37300 47 ft 0 kts 121°
2026-04-23 17:44 64.92731 25.37301 47 ft 1 kts 121°
2026-04-23 17:44 64.92726 25.37323 47 ft 4 kts 121°
2026-04-23 17:44 64.92623 25.37725 50 ft 18 kts 121°
2026-04-23 17:45 64.92548 25.37924 50 ft 15 kts 172°
2026-04-23 17:45 64.92486 25.37493 45 ft 18 kts 299°
2026-04-23 17:45 64.92553 25.37233 45 ft 27 kts 301°
2026-04-23 17:46 64.93226 25.34551 87 ft 148 kts 298°
2026-04-23 17:46 64.93780 25.32541 699 ft 145 kts 299°
2026-04-23 17:46 64.94302 25.30511 1403 ft 147 kts 300°
2026-04-23 17:47 64.94848 25.28336 1763 ft 167 kts 302°
2026-04-23 17:47 64.95474 25.25835 2144 ft 184 kts 302°
2026-04-23 17:47 64.97579 25.23019 3525 ft 200 kts
2026-04-23 17:48 64.98938 25.24430 3928 ft 227 kts 25°
2026-04-23 17:48 65.00370 25.26428 4459 ft 247 kts 27°
2026-04-23 17:48 65.01845 25.28599 5323 ft 252 kts 28°
2026-04-23 17:48 65.03350 25.30803 6248 ft 255 kts 25°
2026-04-23 17:49 65.04996 25.32307 7147 ft 254 kts 13°
2026-04-23 17:49 65.06696 25.33455 8100 ft 254 kts 12°
2026-04-23 17:49 65.08400 25.34570 9105 ft 254 kts 11°
2026-04-23 17:49 65.09549 25.35314 9760 ft 254 kts 11°
2026-04-23 17:50 65.11295 25.36435 10291 ft 270 kts 10°
2026-04-23 17:50 65.15138 25.38901 11340 ft 294 kts 10°
2026-04-23 17:50 65.17122 25.40194 12132 ft 297 kts 10°
2026-04-23 17:51 65.19127 25.41511 12925 ft 300 kts
2026-04-23 17:51 65.21155 25.42844 13586 ft 304 kts
2026-04-23 17:51 65.25193 25.45514 13789 ft 293 kts
2026-04-23 17:52 65.27146 25.46806 13789 ft 290 kts
2026-04-23 17:52 65.31025 25.48645 13789 ft 282 kts 356°
2026-04-23 17:52 65.33013 25.48741 13788 ft 282 kts 356°
2026-04-23 17:53 65.36913 25.48952 13791 ft 282 kts 357°
2026-04-23 17:53 65.38894 25.49065 13791 ft 287 kts 357°
2026-04-23 17:53 65.40874 25.49182 13805 ft 283 kts 356°
2026-04-23 17:54 65.42838 25.49300 13776 ft 283 kts 357°
2026-04-23 17:54 65.44806 25.49420 13783 ft 282 kts 357°
2026-04-23 17:54 65.48734 25.49653 13780 ft 282 kts 356°
2026-04-23 17:55 65.52660 25.49878 13780 ft 282 kts 356°
2026-04-23 17:55 65.54621 25.49993 13778 ft 282 kts 356°
2026-04-23 17:55 65.56609 25.50110 13776 ft 282 kts 356°
2026-04-23 17:56 65.58547 25.50224 13779 ft 282 kts 356°
2026-04-23 17:56 65.62471 25.50460 13781 ft 282 kts 356°
2026-04-23 17:56 65.64435 25.50575 13782 ft 282 kts 356°
2026-04-23 17:57 65.66399 25.50691 13783 ft 282 kts 356°
2026-04-23 17:57 65.68363 25.50808 13775 ft 282 kts 356°
2026-04-23 17:57 65.72286 25.51036 13776 ft 282 kts 356°
2026-04-23 17:58 65.74247 25.51150 13773 ft 282 kts 356°
2026-04-23 17:58 65.76237 25.51270 13774 ft 282 kts 356°
2026-04-23 17:58 65.78171 25.51387 13774 ft 282 kts 356°
2026-04-23 17:58 65.80157 25.51504 13774 ft 282 kts 356°
2026-04-23 17:59 65.82116 25.51622 13768 ft 282 kts 356°
2026-04-23 17:59 65.84075 25.51742 13768 ft 282 kts 356°
2026-04-23 17:59 65.86034 25.51861 13768 ft 282 kts 356°
2026-04-23 17:59 65.87992 25.51981 13767 ft 282 kts 356°
2026-04-23 18:00 65.89953 25.52098 13767 ft 282 kts 356°
2026-04-23 18:00 65.91905 25.52715 13766 ft 289 kts 11°
2026-04-23 18:00 65.93803 25.54473 13768 ft 292 kts 14°
2026-04-23 18:00 65.95689 25.56301 13768 ft 292 kts 14°
2026-04-23 18:01 65.97577 25.58152 13768 ft 292 kts 14°
2026-04-23 18:01 65.99464 25.60010 13768 ft 292 kts 15°
2026-04-23 18:01 66.01290 25.61822 13690 ft 282 kts 14°
2026-04-23 18:01 66.03076 25.63595 13538 ft 273 kts 14°
2026-04-23 18:02 66.04824 25.65319 13206 ft 269 kts 14°
2026-04-23 18:02 66.06555 25.67023 12853 ft 268 kts 15°
2026-04-23 18:02 66.08288 25.68725 12432 ft 268 kts 15°
2026-04-23 18:02 66.10017 25.70426 12033 ft 267 kts 16°
2026-04-23 18:03 66.11740 25.72132 11638 ft 267 kts 16°
2026-04-23 18:03 66.13461 25.73846 11242 ft 266 kts 16°
2026-04-23 18:03 66.15172 25.75551 10858 ft 265 kts 17°
2026-04-23 18:03 66.16883 25.77255 10480 ft 264 kts 17°
2026-04-23 18:04 66.18587 25.78949 10088 ft 264 kts 17°
2026-04-23 18:04 66.20285 25.80637 9710 ft 263 kts 17°
2026-04-23 18:04 66.21966 25.82318 9382 ft 259 kts 18°
2026-04-23 18:04 66.23629 25.83990 8991 ft 257 kts 18°
2026-04-23 18:05 66.25275 25.85651 8613 ft 255 kts 18°
2026-04-23 18:05 66.26910 25.87304 8229 ft 253 kts 18°
2026-04-23 18:05 66.28535 25.88943 7829 ft 251 kts 18°
2026-04-23 18:05 66.30146 25.90563 7447 ft 249 kts 18°
2026-04-23 18:06 66.31742 25.92166 7061 ft 247 kts 18°
2026-04-23 18:06 66.33330 25.93763 6672 ft 245 kts 18°
2026-04-23 18:06 66.34903 25.95352 6273 ft 243 kts 18°
2026-04-23 18:06 66.36437 25.96913 6113 ft 232 kts 18°
2026-04-23 18:07 66.37893 25.98399 6005 ft 220 kts 17°
2026-04-23 18:07 66.39331 25.99852 5415 ft 227 kts 16°
2026-04-23 18:07 66.40811 26.01343 4904 ft 231 kts 16°
2026-04-23 18:07 66.42282 26.02834 4453 ft 232 kts 15°
2026-04-23 18:08 66.43295 26.03861 4132 ft 234 kts 15°
2026-04-23 18:08 66.45291 26.05891 3566 ft 233 kts 15°
2026-04-23 18:08 66.46796 26.07427 3126 ft 234 kts 16°
2026-04-23 18:08 66.48306 26.08968 2687 ft 234 kts 16°
2026-04-23 18:09 66.49805 26.10500 2502 ft 233 kts 16°
2026-04-23 18:09 66.51312 26.12040 2506 ft 235 kts 16°
2026-04-23 18:09 66.52828 26.13598 2509 ft 236 kts 16°
2026-04-23 18:09 66.54344 26.15164 2508 ft 236 kts 16°
2026-04-23 18:10 66.55860 26.16735 2509 ft 236 kts 16°
2026-04-23 18:10 66.57371 26.18306 2509 ft 235 kts 16°
2026-04-23 18:10 66.58883 26.19873 2509 ft 235 kts 16°
2026-04-23 18:10 66.60392 26.21435 2515 ft 234 kts 16°
2026-04-23 18:11 66.61902 26.22994 2512 ft 235 kts 16°
2026-04-23 18:11 66.63436 26.24358 2511 ft 231 kts
2026-04-23 18:11 66.64961 26.24378 2511 ft 208 kts 344°
2026-04-23 18:11 66.66246 26.23188 2511 ft 188 kts 327°
2026-04-23 18:12 66.67221 26.21232 2510 ft 174 kts 311°
2026-04-23 18:12 66.67946 26.18906 2533 ft 160 kts 308°
2026-04-23 18:12 66.68584 26.16797 2514 ft 142 kts 308°
2026-04-23 18:12 66.69150 26.14933 2502 ft 127 kts 308°
2026-04-23 18:13 66.69628 26.13121 2496 ft 122 kts 296°
2026-04-23 18:13 66.69794 26.11073 2514 ft 123 kts 277°
2026-04-23 18:13 66.69609 26.08932 2517 ft 130 kts 255°
2026-04-23 18:13 66.69011 26.07092 2518 ft 149 kts 229°
2026-04-23 18:14 66.68138 26.05399 2523 ft 162 kts 227°
2026-04-23 18:14 66.67233 26.03665 2516 ft 164 kts 227°
2026-04-23 18:14 66.66322 26.01914 2506 ft 165 kts 227°
2026-04-23 18:14 66.65411 26.00161 2498 ft 165 kts 226°
2026-04-23 18:15 66.64498 25.98405 2389 ft 165 kts 226°
2026-04-23 18:15 66.63588 25.96656 2184 ft 164 kts 227°
2026-04-23 18:15 66.62683 25.94918 1963 ft 163 kts 226°
2026-04-23 18:15 66.61782 25.93189 1744 ft 161 kts 225°
2026-04-23 18:16 66.60932 25.91568 1514 ft 147 kts 226°
2026-04-23 18:16 66.60139 25.90046 1313 ft 141 kts 225°
2026-04-23 18:16 66.59366 25.88564 1105 ft 139 kts 223°
2026-04-23 18:17 66.57848 25.85659 719 ft 137 kts 221°
2026-04-23 18:17 66.57114 25.84250 620 ft 123 kts 221°
2026-04-23 18:17 66.56615 25.83289 631 ft 73 kts 216°
2026-04-23 18:17 66.56367 25.82823 631 ft 23 kts 218°
2026-04-23 18:18 66.56257 25.82758 631 ft 15 kts 140°
2026-04-23 18:18 66.56181 25.82965 626 ft 12 kts 155°
2026-04-23 18:18 66.56176 25.82966 625 ft 0 kts 171°
2026-04-23 18:18 66.56142 25.82942 625 ft 11 kts 208°
2026-04-23 18:19 66.56078 25.82815 623 ft 14 kts 215°
2026-04-23 18:19 66.55982 25.82639 622 ft 15 kts 213°
2026-04-23 18:19 66.55903 25.82682 623 ft 8 kts 154°
2026-04-23 18:19 66.55872 25.82717 624 ft 2 kts 155°
2026-04-23 18:20 66.55863 25.82727 624 ft 0 kts 155°